Time;durP1;ratioP1;P1;durP2;ratioP2;P2;SDS_P1;SDS_P2;PMS_P1;PMS_P2;Temp;Humidity;BMP_temperature;BMP_pressure;BME280_temperature;BME280_humidity;BME280_pressure;Samples;Min_cycle;Max_cycle;Signal;HPM_P1;HPM_P2
2022/04/14 00:01:08;;;;;;;;;;;;;;;;;;5061022;28;19936;-74
2022/04/14 00:03:35;;;;;;;;;;;;;;;;;;5062114;28;19925;-73
2022/04/14 00:06:01;;;;;;;;;;;;;;;;;;5062881;28;19955;-73
2022/04/14 00:08:27;;;;;;;;;;;;;;;;;;5062329;28;20418;-75
2022/04/14 00:10:53;;;;;;;;;;;;;;;;;;5063528;28;20434;-72
2022/04/14 00:13:19;;;;;;;;;;;;;;;;;;5064823;28;20013;-75
2022/04/14 00:15:45;;;;;;;;;;;;;;;;;;5063977;28;20283;-74
2022/04/14 00:18:11;;;;;;;;;;;;;;;;;;5065863;28;20360;-75
2022/04/14 00:20:37;;;;;;;;;;;;;;;;;;5065979;28;19932;-74
2022/04/14 00:23:04;;;;;;;;;;;;;;;;;;5061189;28;19928;-74
2022/04/14 00:25:30;;;;;;;;;;;;;;;;;;5065245;28;19944;-73
2022/04/14 00:27:56;;;;;;;;;;;;;;;;;;5067085;28;19935;-75
2022/04/14 00:30:22;;;;;;;;;;;;;;;;;;5065858;28;19928;-75
2022/04/14 00:32:48;;;;;;;;;;;;;;;;;;5065824;28;19924;-74
2022/04/14 00:35:14;;;;;;;;;;;;;;;;;;5067127;28;19969;-74
2022/04/14 00:37:41;;;;;;;;;;;;;;;;;;5066485;28;20025;-76
2022/04/14 00:40:07;;;;;;;;;;;;;;;;;;5067228;28;19924;-75
2022/04/14 00:42:33;;;;;;;;;;;;;;;;;;5065368;28;20011;-75
2022/04/14 00:44:59;;;;;;;;;;;;;;;;;;5066943;28;19928;-75
2022/04/14 00:47:25;;;;;;;;;;;;;;;;;;5062857;28;19936;-75
2022/04/14 00:49:51;;;;;;;;;;;;;;;;;;5066217;28;20299;-74
2022/04/14 00:52:18;;;;;;;;;;;;;;;;;;5060334;28;20704;-74
2022/04/14 00:54:44;;;;;;;;;;;;;;;;;;5066076;28;20553;-73
2022/04/14 00:57:10;;;;;;;;;;;;;;;;;;4714649;28;10000211;-75
2022/04/14 00:59:36;;;;;;;;;;;;;;;;;;5065900;28;19947;-74
2022/04/14 01:02:02;;;;;;;;;;;;;;;;;;5062641;28;19959;-76
2022/04/14 01:04:28;;;;;;;;;;;;;;;;;;5065706;28;19928;-76
2022/04/14 01:06:55;;;;;;;;;;;;;;;;;;5066647;28;20358;-76
2022/04/14 01:09:21;;;;;;;;;;;;;;;;;;5067232;28;20398;-75
2022/04/14 01:11:47;;;;;;;;;;;;;;;;;;5066768;28;19939;-75
2022/04/14 01:14:13;;;;;;;;;;;;;;;;;;5069113;28;19928;-74
2022/04/14 01:16:39;;;;;;;;;;;;;;;;;;5064513;28;19996;-75
2022/04/14 01:19:05;;;;;;;;;;;;;;;;;;5068808;28;19925;-75
2022/04/14 01:21:33;;;;;;;;;;;;;;;;;;5066519;28;20108;-74
2022/04/14 01:23:59;;;;;;;;;;;;;;;;;;5068378;28;19925;-75
2022/04/14 01:26:25;;;;;;;;;;;;;;;;;;5064962;28;19924;-75
2022/04/14 01:28:51;;;;;;;;;;;;;;;;;;5068431;28;19928;-76
2022/04/14 01:31:17;;;;;;;;;;;;;;;;;;5064696;28;19968;-76
2022/04/14 01:33:43;;;;;;;;;;;;;;;;;;5066704;28;19986;-76
2022/04/14 01:36:10;;;;;;;;;;;;;;;;;;5068999;28;19935;-73
2022/04/14 01:38:38;;;;;;;;;;;;;;;;;;5092928;28;20464;-77
2022/04/14 01:41:04;;;;;;;;;;;;;;;;;;5079315;28;19984;-75
2022/04/14 01:43:30;;;;;;;;;;;;;;;;;;5067226;28;20272;-73
2022/04/14 01:45:56;;;;;;;;;;;;;;;;;;5066504;28;19924;-75
2022/04/14 01:48:22;;;;;;;;;;;;;;;;;;5067588;28;19924;-75
2022/04/14 01:50:49;;;;;;;;;;;;;;;;;;5067572;28;19924;-75
2022/04/14 01:53:15;;;;;;;;;;;;;;;;;;5062143;28;19932;-77
2022/04/14 01:55:41;;;;;;;;;;;;;;;;;;5067318;28;19932;-75
2022/04/14 01:58:08;;;;;;;;;;;;;;;;;;5068296;28;19935;-74
2022/04/14 02:00:34;;;;;;;;;;;;;;;;;;5066092;28;19970;-75
2022/04/14 02:03:00;;;;;;;;;;;;;;;;;;5064153;28;20041;-75
2022/04/14 02:05:26;;;;;;;;;;;;;;;;;;5067069;28;20096;-75
2022/04/14 02:07:52;;;;;;;;;;;;;;;;;;5061817;28;20272;-75
2022/04/14 02:10:18;;;;;;;;;;;;;;;;;;5067082;28;19932;-76
2022/04/14 02:12:45;;;;;;;;;;;;;;;;;;5067171;28;19937;-73
2022/04/14 02:15:12;;;;;;;;;;;;;;;;;;5067130;28;19928;-76
2022/04/14 02:17:38;;;;;;;;;;;;;;;;;;5066831;28;20015;-76
2022/04/14 02:20:05;;;;;;;;;;;;;;;;;;5066831;28;19940;-75
2022/04/14 02:22:31;;;;;;;;;;;;;;;;;;5066839;28;20286;-75
2022/04/14 02:24:57;;;;;;;;;;;;;;;;;;5111493;22;19924;-77
2022/04/14 02:27:25;;;;;;;;;;;;;;;;;;5087812;28;19985;-76
2022/04/14 02:29:51;;;;;;;;;;;;;;;;;;5088443;28;19975;-77
2022/04/14 02:32:17;;;;;;;;;;;;;;;;;;5087089;28;19935;-76
2022/04/14 02:34:43;;;;;;;;;;;;;;;;;;5075923;28;19924;-77
2022/04/14 02:37:09;;;;;;;;;;;;;;;;;;5068154;28;19928;-77
2022/04/14 02:39:35;;;;;;;;;;;;;;;;;;5066884;28;19935;-74
2022/04/14 02:42:02;;;;;;;;;;;;;;;;;;5068783;28;19924;-73
2022/04/14 02:44:28;;;;;;;;;;;;;;;;;;5067146;28;19931;-74
2022/04/14 02:46:54;;;;;;;;;;;;;;;;;;5064113;28;19929;-75
2022/04/14 02:49:21;;;;;;;;;;;;;;;;;;5066804;28;20266;-75
2022/04/14 02:51:47;;;;;;;;;;;;;;;;;;5065740;28;20360;-75
2022/04/14 02:54:13;;;;;;;;;;;;;;;;;;5067515;28;19936;-76
2022/04/14 02:56:40;;;;;;;;;;;;;;;;;;5066622;28;19925;-76
2022/04/14 02:59:06;;;;;;;;;;;;;;;;;;5066643;28;19925;-75
2022/04/14 03:01:32;;;;;;;;;;;;;;;;;;5064351;28;19932;-73
2022/04/14 03:03:58;;;;;;;;;;;;;;;;;;5066848;28;19958;-75
2022/04/14 03:06:24;;;;;;;;;;;;;;;;;;5066809;28;19924;-74
2022/04/14 03:08:50;;;;;;;;;;;;;;;;;;5066977;28;19924;-74
2022/04/14 03:11:16;;;;;;;;;;;;;;;;;;5066109;28;19924;-74
2022/04/14 03:13:43;;;;;;;;;;;;;;;;;;5065140;28;19936;-74
2022/04/14 03:16:09;;;;;;;;;;;;;;;;;;5064752;28;19925;-74
2022/04/14 03:18:35;;;;;;;;;;;;;;;;;;5066572;28;19932;-73
2022/04/14 03:21:01;;;;;;;;;;;;;;;;;;5066223;28;19933;-73
2022/04/14 03:23:27;;;;;;;;;;;;;;;;;;5065440;28;19925;-71
2022/04/14 03:25:53;;;;;;;;;;;;;;;;;;5066482;28;19924;-75
2022/04/14 03:28:19;;;;;;;;;;;;;;;;;;5072217;28;19925;-76
2022/04/14 03:30:46;;;;;;;;;;;;;;;;;;5065115;28;19928;-74
2022/04/14 03:33:12;;;;;;;;;;;;;;;;;;5065846;28;19963;-74
2022/04/14 03:35:38;;;;;;;;;;;;;;;;;;5065931;28;19936;-75
2022/04/14 03:38:04;;;;;;;;;;;;;;;;;;5066751;28;19950;-74
2022/04/14 03:40:30;;;;;;;;;;;;;;;;;;5069473;28;19924;-75
2022/04/14 03:42:56;;;;;;;;;;;;;;;;;;5065453;28;19936;-74
2022/04/14 03:45:22;;;;;;;;;;;;;;;;;;5065266;28;20163;-72
2022/04/14 03:47:49;;;;;;;;;;;;;;;;;;5070370;28;20180;-73
2022/04/14 03:50:15;;;;;;;;;;;;;;;;;;5072335;28;20334;-73
2022/04/14 03:52:41;;;;;;;;;;;;;;;;;;5066574;28;20435;-73
2022/04/14 03:55:07;;;;;;;;;;;;;;;;;;5071258;28;20405;-75
2022/04/14 03:57:33;;;;;;;;;;;;;;;;;;5069968;28;19928;-75
2022/04/14 03:59:59;;;;;;;;;;;;;;;;;;5070512;28;19931;-73
2022/04/14 04:02:25;;;;;;;;;;;;;;;;;;5067727;28;19924;-75
2022/04/14 04:04:51;;;;;;;;;;;;;;;;;;5069815;28;19932;-72
2022/04/14 04:07:17;;;;;;;;;;;;;;;;;;5069833;28;19940;-75
2022/04/14 04:09:44;;;;;;;;;;;;;;;;;;5069805;28;19929;-74
2022/04/14 04:12:10;;;;;;;;;;;;;;;;;;5068302;28;19929;-75
2022/04/14 04:14:36;;;;;;;;;;;;;;;;;;5069349;28;19924;-73
2022/04/14 04:17:02;;;;;;;;;;;;;;;;;;5068246;28;19948;-76
2022/04/14 04:19:28;;;;;;;;;;;;;;;;;;5069437;28;20015;-74
2022/04/14 04:21:55;;;;;;;;;;;;;;;;;;5068913;28;19932;-74
2022/04/14 04:24:21;;;;;;;;;;;;;;;;;;5069625;28;19925;-74
2022/04/14 04:26:47;;;;;;;;;;;;;;;;;;5070426;28;19925;-75
2022/04/14 04:29:13;;;;;;;;;;;;;;;;;;5072190;28;19933;-73
2022/04/14 04:31:39;;;;;;;;;;;;;;;;;;5069833;28;20387;-74
2022/04/14 04:34:05;;;;;;;;;;;;;;;;;;5071894;28;20277;-75
2022/04/14 04:36:31;;;;;;;;;;;;;;;;;;5072499;28;19932;-75
2022/04/14 04:39:01;;;;;;;;;;;;;;;;;;5077760;28;19940;-74
2022/04/14 04:41:27;;;;;;;;;;;;;;;;;;5078407;28;19951;-76
2022/04/14 04:43:54;;;;;;;;;;;;;;;;;;5077428;28;19924;-75
2022/04/14 04:46:20;;;;;;;;;;;;;;;;;;5074208;28;19929;-73
2022/04/14 04:48:46;;;;;;;;;;;;;;;;;;5074976;28;19929;-74
2022/04/14 04:51:12;;;;;;;;;;;;;;;;;;5075961;28;19925;-74
2022/04/14 04:53:38;;;;;;;;;;;;;;;;;;5074747;28;19929;-72
2022/04/14 04:56:04;;;;;;;;;;;;;;;;;;5072510;28;19931;-73
2022/04/14 04:58:30;;;;;;;;;;;;;;;;;;5069999;28;19924;-71
2022/04/14 05:00:56;;;;;;;;;;;;;;;;;;5066857;28;19932;-74
2022/04/14 05:03:23;;;;;;;;;;;;;;;;;;5067981;28;19932;-74
2022/04/14 05:05:49;;;;;;;;;;;;;;;;;;5068943;28;19934;-75
2022/04/14 05:08:15;;;;;;;;;;;;;;;;;;5068822;28;20031;-74
2022/04/14 05:10:41;;;;;;;;;;;;;;;;;;5069104;28;19929;-74
2022/04/14 05:13:07;;;;;;;;;;;;;;;;;;5068634;28;19931;-74
2022/04/14 05:15:35;;;;;;;;;;;;;;;;;;5066853;28;19939;-74
2022/04/14 05:18:01;;;;;;;;;;;;;;;;;;5068491;28;19928;-75
2022/04/14 05:20:27;;;;;;;;;;;;;;;;;;5069267;28;19929;-74
2022/04/14 05:22:54;;;;;;;;;;;;;;;;;;5068236;28;19936;-74
2022/04/14 05:25:20;;;;;;;;;;;;;;;;;;4366579;28;10000725;-74
2022/04/14 05:27:46;;;;;;;;;;;;;;;;;;5066641;28;19929;-75
2022/04/14 05:30:12;;;;;;;;;;;;;;;;;;5084272;28;19934;-73
2022/04/14 05:32:38;;;;;;;;;;;;;;;;;;5064293;28;19928;-76
2022/04/14 05:35:05;;;;;;;;;;;;;;;;;;5063635;28;20375;-74
2022/04/14 05:37:31;;;;;;;;;;;;;;;;;;5063081;28;19932;-74
2022/04/14 05:39:57;;;;;;;;;;;;;;;;;;5067363;28;20406;-73
2022/04/14 05:42:23;;;;;;;;;;;;;;;;;;5062863;28;19993;-73
2022/04/14 05:44:49;;;;;;;;;;;;;;;;;;5064710;28;19935;-75
2022/04/14 05:47:15;;;;;;;;;;;;;;;;;;5062855;28;19928;-74
2022/04/14 05:49:41;;;;;;;;;;;;;;;;;;5064361;28;19936;-73
2022/04/14 05:52:07;;;;;;;;;;;;;;;;;;5064298;28;19935;-74
2022/04/14 05:54:33;;;;;;;;;;;;;;;;;;5063248;28;19932;-75
2022/04/14 05:57:00;;;;;;;;;;;;;;;;;;5063474;28;19935;-73
2022/04/14 05:59:26;;;;;;;;;;;;;;;;;;5064702;28;19928;-75
2022/04/14 06:01:52;;;;;;;;;;;;;;;;;;5061202;28;20003;-75
2022/04/14 06:04:18;;;;;;;;;;;;;;;;;;5064315;28;19928;-74
2022/04/14 06:06:46;;;;;;;;;;;;;;;;;;5064054;28;21264;-76
2022/04/14 06:09:12;;;;;;;;;;;;;;;;;;5064014;28;19940;-73
2022/04/14 06:11:39;;;;;;;;;;;;;;;;;;5062552;28;20288;-74
2022/04/14 06:14:05;;;;;;;;;;;;;;;;;;5063725;28;19924;-74
2022/04/14 06:16:31;;;;;;;;;;;;;;;;;;5061868;28;19928;-72
2022/04/14 06:18:57;;;;;;;;;;;;;;;;;;5063976;28;19943;-74
2022/04/14 06:21:23;;;;;;;;;;;;;;;;;;5064131;28;20055;-74
2022/04/14 06:23:50;;;;;;;;;;;;;;;;;;5062892;28;19931;-72
2022/04/14 06:26:16;;;;;;;;;;;;;;;;;;5063604;28;19982;-73
2022/04/14 06:28:45;;;;;;;;;;;;;;;;;;5064459;28;19935;-73
2022/04/14 06:31:11;;;;;;;;;;;;;;;;;;5062367;28;20035;-73
2022/04/14 06:33:37;;;;;;;;;;;;;;;;;;5064652;28;19929;-74
2022/04/14 06:36:03;;;;;;;;;;;;;;;;;;5064954;28;19936;-74
2022/04/14 06:38:30;;;;;;;;;;;;;;;;;;5065376;28;19935;-75
2022/04/14 06:40:56;;;;;;;;;;;;;;;;;;5066968;28;19936;-73
2022/04/14 06:43:23;;;;;;;;;;;;;;;;;;5063489;28;19939;-76
2022/04/14 06:45:49;;;;;;;;;;;;;;;;;;5061893;28;20454;-76
2022/04/14 06:48:15;;;;;;;;;;;;;;;;;;5060636;28;19928;-74
2022/04/14 06:50:41;;;;;;;;;;;;;;;;;;5063935;28;19928;-75
2022/04/14 06:53:07;;;;;;;;;;;;;;;;;;5065663;28;19936;-75
2022/04/14 06:55:35;;;;;;;;;;;;;;;;;;5069498;28;19943;-74
2022/04/14 06:58:01;;;;;;;;;;;;;;;;;;5074318;28;19946;-75
2022/04/14 07:00:28;;;;;;;;;;;;;;;;;;5076416;28;19944;-74
2022/04/14 07:02:54;;;;;;;;;;;;;;;;;;5077165;28;19928;-74
2022/04/14 07:05:20;;;;;;;;;;;;;;;;;;5078869;28;19993;-75
2022/04/14 07:07:46;;;;;;;;;;;;;;;;;;5079885;28;19939;-74
2022/04/14 07:10:12;;;;;;;;;;;;;;;;;;5080120;28;19935;-74
2022/04/14 07:12:39;;;;;;;;;;;;;;;;;;5079255;28;19939;-74
2022/04/14 07:15:05;;;;;;;;;;;;;;;;;;5080869;28;19936;-75
2022/04/14 07:17:31;;;;;;;;;;;;;;;;;;5074910;28;19931;-74
2022/04/14 07:19:58;;;;;;;;;;;;;;;;;;5077395;28;19932;-74
2022/04/14 07:22:24;;;;;;;;;;;;;;;;;;5080623;28;19928;-74
2022/04/14 07:24:50;;;;;;;;;;;;;;;;;;5081123;28;19955;-75
2022/04/14 07:27:17;;;;;;;;;;;;;;;;;;5072769;28;20302;-75
2022/04/14 07:29:45;;;;;;;;;;;;;;;;;;5067325;28;19979;-75
2022/04/14 07:32:11;;;;;;;;;;;;;;;;;;5065109;28;19928;-75
2022/04/14 07:34:38;;;;;;;;;;;;;;;;;;5067992;28;19936;-75
2022/04/14 07:37:04;;;;;;;;;;;;;;;;;;5067552;28;19935;-74
2022/04/14 07:39:30;;;;;;;;;;;;;;;;;;5067861;28;19930;-74
2022/04/14 07:41:56;;;;;;;;;;;;;;;;;;5069502;28;19928;-74
2022/04/14 07:44:22;;;;;;;;;;;;;;;;;;5066773;28;19924;-73
2022/04/14 07:46:48;;;;;;;;;;;;;;;;;;5065443;28;20073;-74
2022/04/14 07:49:14;;;;;;;;;;;;;;;;;;5067325;28;19932;-74
2022/04/14 07:51:41;;;;;;;;;;;;;;;;;;5066095;28;19932;-74
2022/04/14 07:54:07;;;;;;;;;;;;;;;;;;5066875;28;19970;-75
2022/04/14 07:56:33;;;;;;;;;;;;;;;;;;5066123;28;20467;-75
2022/04/14 07:58:59;;;;;;;;;;;;;;;;;;5066513;28;19928;-74
2022/04/14 08:01:25;;;;;;;;;;;;;;;;;;5064389;28;19925;-74
2022/04/14 08:03:51;;;;;;;;;;;;;;;;;;5066276;28;19959;-73
2022/04/14 08:06:18;;;;;;;;;;;;;;;;;;5066743;28;19951;-73
2022/04/14 08:08:44;;;;;;;;;;;;;;;;;;5066584;28;20395;-74
2022/04/14 08:11:10;;;;;;;;;;;;;;;;;;5065975;28;19936;-74
2022/04/14 08:13:38;;;;;;;;;;;;;;;;;;5065402;28;19924;-73
2022/04/14 08:16:06;;;;;;;;;;;;;;;;;;5062789;28;19928;-75
2022/04/14 08:18:32;;;;;;;;;;;;;;;;;;5067226;28;19925;-75
2022/04/14 08:20:59;;;;;;;;;;;;;;;;;;5066592;28;19955;-75
2022/04/14 08:23:25;;;;;;;;;;;;;;;;;;5065908;28;20354;-75
2022/04/14 08:25:51;;;;;;;;;;;;;;;;;;5094452;22;19932;-75
2022/04/14 08:28:17;;;;;;;;;;;;;;;;;;5067937;28;19928;-76
2022/04/14 08:30:44;;;;;;;;;;;;;;;;;;5066154;28;20010;-74
2022/04/14 08:33:10;;;;;;;;;;;;;;;;;;5067218;28;20327;-75
2022/04/14 08:35:36;;;;;;;;;;;;;;;;;;5068121;28;19981;-76
2022/04/14 08:38:02;;;;;;;;;;;;;;;;;;5068770;28;19928;-73
2022/04/14 08:40:29;;;;;;;;;;;;;;;;;;5070067;28;19935;-75
2022/04/14 08:42:55;;;;;;;;;;;;;;;;;;5066574;28;20294;-75
2022/04/14 08:45:21;;;;;;;;;;;;;;;;;;5066264;28;19936;-77
2022/04/14 08:47:47;;;;;;;;;;;;;;;;;;5067670;28;19928;-73
2022/04/14 08:50:14;;;;;;;;;;;;;;;;;;5067918;28;19928;-76
2022/04/14 08:52:40;;;;;;;;;;;;;;;;;;5068328;28;20015;-76
2022/04/14 08:55:06;;;;;;;;;;;;;;;;;;5069604;28;19924;-77
2022/04/14 08:57:32;;;;;;;;;;;;;;;;;;5069369;28;19932;-79
2022/04/14 08:59:58;;;;;;;;;;;;;;;;;;5077289;28;20587;-78
2022/04/14 09:02:25;;;;;;;;;;;;;;;;;;5089489;28;19924;-76
2022/04/14 09:04:51;;;;;;;;;;;;;;;;;;5090359;28;19939;-76
2022/04/14 09:07:17;;;;;;;;;;;;;;;;;;5090882;28;19912;-75
2022/04/14 09:09:43;;;;;;;;;;;;;;;;;;5086000;28;20442;-78
2022/04/14 09:12:09;;;;;;;;;;;;;;;;;;5082138;28;19938;-76
2022/04/14 09:14:37;;;;;;;;;;;;;;;;;;5082352;28;19951;-78
2022/04/14 09:17:03;;;;;;;;;;;;;;;;;;5072473;28;20018;-76
2022/04/14 09:19:29;;;;;;;;;;;;;;;;;;5079215;28;20043;-76
2022/04/14 09:21:55;;;;;;;;;;;;;;;;;;5077277;28;20367;-77
2022/04/14 09:24:21;;;;;;;;;;;;;;;;;;5078327;28;19982;-78
2022/04/14 09:26:47;;;;;;;;;;;;;;;;;;5072132;28;19940;-76
2022/04/14 09:29:14;;;;;;;;;;;;;;;;;;5070202;28;20407;-77
2022/04/14 09:31:40;;;;;;;;;;;;;;;;;;5070530;28;19928;-76
2022/04/14 09:34:06;;;;;;;;;;;;;;;;;;5078176;28;19992;-77
2022/04/14 09:36:32;;;;;;;;;;;;;;;;;;5070144;28;19928;-73
2022/04/14 09:38:58;;;;;;;;;;;;;;;;;;5074708;28;19936;-77
2022/04/14 09:41:24;;;;;;;;;;;;;;;;;;5068121;28;20404;-76
2022/04/14 09:43:50;;;;;;;;;;;;;;;;;;5063329;28;19968;-76
2022/04/14 09:46:17;;;;;;;;;;;;;;;;;;5065952;28;20033;-76
2022/04/14 09:48:43;;;;;;;;;;;;;;;;;;5069279;28;19929;-78
2022/04/14 09:51:09;;;;;;;;;;;;;;;;;;5068836;28;19979;-78
2022/04/14 09:53:35;;;;;;;;;;;;;;;;;;5067350;28;19936;-75
2022/04/14 09:56:02;;;;;;;;;;;;;;;;;;5068555;28;19935;-76
2022/04/14 09:58:28;;;;;;;;;;;;;;;;;;5067791;28;19924;-78
2022/04/14 10:00:54;;;;;;;;;;;;;;;;;;5065227;28;19950;-78
2022/04/14 10:03:20;;;;;;;;;;;;;;;;;;5066386;28;19939;-77
2022/04/14 10:05:47;;;;;;;;;;;;;;;;;;5066601;28;19947;-79
2022/04/14 10:08:13;;;;;;;;;;;;;;;;;;5067525;28;19932;-79
2022/04/14 10:10:39;;;;;;;;;;;;;;;;;;5066429;28;19928;-78
2022/04/14 10:13:06;;;;;;;;;;;;;;;;;;5064893;28;19929;-77
2022/04/14 10:15:32;;;;;;;;;;;;;;;;;;5062637;28;20017;-78
2022/04/14 10:17:58;;;;;;;;;;;;;;;;;;5071531;28;19939;-76
2022/04/14 10:20:25;;;;;;;;;;;;;;;;;;5086514;28;19924;-75
2022/04/14 10:22:51;;;;;;;;;;;;;;;;;;5071454;28;20017;-78
2022/04/14 10:25:17;;;;;;;;;;;;;;;;;;5061604;28;19924;-75
2022/04/14 10:27:43;;;;;;;;;;;;;;;;;;5065176;28;20062;-80
2022/04/14 10:30:09;;;;;;;;;;;;;;;;;;5065626;28;19929;-76
2022/04/14 10:32:35;;;;;;;;;;;;;;;;;;5063458;28;19925;-78
2022/04/14 10:35:02;;;;;;;;;;;;;;;;;;5064414;28;19940;-76
2022/04/14 10:37:28;;;;;;;;;;;;;;;;;;5063054;28;19928;-77
2022/04/14 10:39:54;;;;;;;;;;;;;;;;;;5069009;28;19931;-79
2022/04/14 10:42:20;;;;;;;;;;;;;;;;;;5065659;28;19936;-79
2022/04/14 10:44:46;;;;;;;;;;;;;;;;;;5067533;28;19924;-78
2022/04/14 10:47:13;;;;;;;;;;;;;;;;;;5062438;28;19979;-75
2022/04/14 10:49:39;;;;;;;;;;;;;;;;;;4714623;28;9999735;-77
2022/04/14 10:52:05;;;;;;;;;;;;;;;;;;5064075;28;19928;-76
2022/04/14 10:54:31;;;;;;;;;;;;;;;;;;5063709;28;19925;-77
2022/04/14 10:56:57;;;;;;;;;;;;;;;;;;5062858;28;19939;-79
2022/04/14 10:59:24;;;;;;;;;;;;;;;;;;5063978;28;20041;-77
2022/04/14 11:01:50;;;;;;;;;;;;;;;;;;5060769;28;19959;-76
2022/04/14 11:04:16;;;;;;;;;;;;;;;;;;5063517;28;20621;-78
2022/04/14 11:06:43;;;;;;;;;;;;;;;;;;5063650;28;19996;-78
2022/04/14 11:09:09;;;;;;;;;;;;;;;;;;5063421;28;20467;-78
2022/04/14 11:11:36;;;;;;;;;;;;;;;;;;5062500;28;19929;-77
2022/04/14 11:14:02;;;;;;;;;;;;;;;;;;5063897;28;20012;-77
2022/04/14 11:16:28;;;;;;;;;;;;;;;;;;5062240;28;19924;-77
2022/04/14 11:18:54;;;;;;;;;;;;;;;;;;5064495;28;19985;-75
2022/04/14 11:21:21;;;;;;;;;;;;;;;;;;5063845;28;19936;-76
2022/04/14 11:23:47;;;;;;;;;;;;;;;;;;5063039;28;19935;-78
2022/04/14 11:26:14;;;;;;;;;;;;;;;;;;5063186;28;20280;-76
2022/04/14 11:28:42;;;;;;;;;;;;;;;;;;5064070;28;20016;-77
2022/04/14 11:31:08;;;;;;;;;;;;;;;;;;5060084;28;20051;-78
2022/04/14 11:33:35;;;;;;;;;;;;;;;;;;5056490;28;19939;-78
2022/04/14 11:36:01;;;;;;;;;;;;;;;;;;5064147;28;20034;-76
2022/04/14 11:38:27;;;;;;;;;;;;;;;;;;5065348;28;19956;-78
2022/04/14 11:40:53;;;;;;;;;;;;;;;;;;5068716;28;19929;-79
2022/04/14 11:43:19;;;;;;;;;;;;;;;;;;5059277;28;20358;-78
2022/04/14 11:45:45;;;;;;;;;;;;;;;;;;5065167;28;20383;-77
2022/04/14 11:48:13;;;;;;;;;;;;;;;;;;5061283;28;20529;-79
2022/04/14 11:50:39;;;;;;;;;;;;;;;;;;5060211;28;20363;-78
2022/04/14 11:53:05;;;;;;;;;;;;;;;;;;5063607;28;19928;-77
2022/04/14 11:55:32;;;;;;;;;;;;;;;;;;5062197;28;19929;-78
2022/04/14 11:57:58;;;;;;;;;;;;;;;;;;5064666;28;19989;-77
2022/04/14 12:00:24;;;;;;;;;;;;;;;;;;5063251;28;19943;-76
2022/04/14 12:02:50;;;;;;;;;;;;;;;;;;5065007;28;19932;-77
2022/04/14 12:05:16;;;;;;;;;;;;;;;;;;5065694;28;19928;-78
2022/04/14 12:07:42;;;;;;;;;;;;;;;;;;5067352;28;19929;-76
2022/04/14 12:10:08;;;;;;;;;;;;;;;;;;5068340;28;19951;-77
2022/04/14 12:12:34;;;;;;;;;;;;;;;;;;5066562;28;19963;-75
2022/04/14 12:15:00;;;;;;;;;;;;;;;;;;5066061;28;19928;-76
2022/04/14 12:17:27;;;;;;;;;;;;;;;;;;5066168;28;19928;-76
2022/04/14 12:19:53;;;;;;;;;;;;;;;;;;5067382;28;19951;-79
2022/04/14 12:22:19;;;;;;;;;;;;;;;;;;5067872;28;19951;-79
2022/04/14 12:24:45;;;;;;;;;;;;;;;;;;5068333;28;19928;-76
2022/04/14 12:27:11;;;;;;;;;;;;;;;;;;5069472;28;19936;-79
2022/04/14 12:29:37;;;;;;;;;;;;;;;;;;5069339;28;19952;-79
2022/04/14 12:32:03;;;;;;;;;;;;;;;;;;5066468;28;19928;-77
2022/04/14 12:34:30;;;;;;;;;;;;;;;;;;5067239;28;19959;-77
2022/04/14 12:36:56;;;;;;;;;;;;;;;;;;5066810;28;20446;-77
2022/04/14 12:39:23;;;;;;;;;;;;;;;;;;5067657;28;19928;-77
2022/04/14 12:41:49;;;;;;;;;;;;;;;;;;5065745;28;19925;-77
2022/04/14 12:44:15;;;;;;;;;;;;;;;;;;5067722;28;20505;-78
2022/04/14 12:46:41;;;;;;;;;;;;;;;;;;5066368;28;20388;-77
2022/04/14 12:49:10;;;;;;;;;;;;;;;;;;5067432;28;19954;-75
2022/04/14 12:51:37;;;;;;;;;;;;;;;;;;5063168;28;20765;-77
2022/04/14 12:54:03;;;;;;;;;;;;;;;;;;5068171;28;19935;-76
2022/04/14 12:56:29;;;;;;;;;;;;;;;;;;5068372;28;19936;-78
2022/04/14 12:58:55;;;;;;;;;;;;;;;;;;5068543;28;20031;-79
2022/04/14 13:01:21;;;;;;;;;;;;;;;;;;5063630;28;19939;-76
2022/04/14 13:03:50;;;;;;;;;;;;;;;;;;5067404;28;19932;-78
2022/04/14 13:06:16;;;;;;;;;;;;;;;;;;5067802;28;20449;-76
2022/04/14 13:08:42;;;;;;;;;;;;;;;;;;5068077;28;20035;-78
2022/04/14 13:11:09;;;;;;;;;;;;;;;;;;5069606;28;19925;-79
2022/04/14 13:13:35;;;;;;;;;;;;;;;;;;5069070;28;20472;-77
2022/04/14 13:16:01;;;;;;;;;;;;;;;;;;5086551;28;19912;-77
2022/04/14 13:18:27;;;;;;;;;;;;;;;;;;5083565;28;19959;-78
2022/04/14 13:20:53;;;;;;;;;;;;;;;;;;5071141;28;19924;-76
2022/04/14 13:23:20;;;;;;;;;;;;;;;;;;5068110;28;19932;-74
2022/04/14 13:25:46;;;;;;;;;;;;;;;;;;5067504;28;19924;-77
2022/04/14 13:28:12;;;;;;;;;;;;;;;;;;5068902;28;19924;-77
2022/04/14 13:30:38;;;;;;;;;;;;;;;;;;5067911;28;20407;-76
2022/04/14 13:33:04;;;;;;;;;;;;;;;;;;5070487;28;19928;-78
2022/04/14 13:35:31;;;;;;;;;;;;;;;;;;5069222;28;20023;-76
2022/04/14 13:37:57;;;;;;;;;;;;;;;;;;5070333;28;20015;-76
2022/04/14 13:40:23;;;;;;;;;;;;;;;;;;5073619;28;20007;-75
2022/04/14 13:42:50;;;;;;;;;;;;;;;;;;5071546;28;19924;-79
2022/04/14 13:45:16;;;;;;;;;;;;;;;;;;5058900;28;20015;-77
2022/04/14 13:47:42;;;;;;;;;;;;;;;;;;5063225;28;19936;-77
2022/04/14 13:50:08;;;;;;;;;;;;;;;;;;4713921;28;10000295;-77
2022/04/14 13:52:35;;;;;;;;;;;;;;;;;;5064067;28;19929;-78
2022/04/14 13:55:01;;;;;;;;;;;;;;;;;;5064871;28;20266;-77
2022/04/14 13:57:27;;;;;;;;;;;;;;;;;;5065789;28;20015;-76
2022/04/14 13:59:53;;;;;;;;;;;;;;;;;;5065589;28;19943;-78
2022/04/14 14:02:19;;;;;;;;;;;;;;;;;;5055945;28;19928;-75
2022/04/14 14:04:45;;;;;;;;;;;;;;;;;;5064807;28;19951;-78
2022/04/14 14:07:11;;;;;;;;;;;;;;;;;;5064600;28;19929;-74
2022/04/14 14:09:38;;;;;;;;;;;;;;;;;;5062965;28;19924;-76
2022/04/14 14:12:04;;;;;;;;;;;;;;;;;;5061419;28;19959;-78
2022/04/14 14:14:30;;;;;;;;;;;;;;;;;;5062806;28;19932;-76
2022/04/14 14:16:56;;;;;;;;;;;;;;;;;;5061979;28;19928;-77
2022/04/14 14:19:22;;;;;;;;;;;;;;;;;;5060740;28;19935;-78
2022/04/14 14:21:49;;;;;;;;;;;;;;;;;;5065755;28;19986;-79
2022/04/14 14:24:15;;;;;;;;;;;;;;;;;;5065762;28;20435;-77
2022/04/14 14:26:41;;;;;;;;;;;;;;;;;;5076367;22;20456;-66
2022/04/14 14:29:07;;;;;;;;;;;;;;;;;;5064803;28;20641;-67
2022/04/14 14:31:33;;;;;;;;;;;;;;;;;;5067105;28;20368;-68
2022/04/14 14:33:59;;;;;;;;;;;;;;;;;;5068855;28;19924;-67
2022/04/14 14:36:25;;;;;;;;;;;;;;;;;;5048120;28;19925;-68
2022/04/14 14:38:52;;;;;;;;;;;;;;;;;;5047770;28;19924;-68
2022/04/14 14:41:18;;;;;;;;;;;;;;;;;;5046387;28;19924;-67
2022/04/14 14:43:44;;;;;;;;;;;;;;;;;;5047147;28;19929;-67
2022/04/14 14:46:11;;;;;;;;;;;;;;;;;;5041996;28;19929;-67
2022/04/14 14:48:38;;;;;;;;;;;;;;;;;;5049681;28;19929;-67
2022/04/14 14:51:04;;;;;;;;;;;;;;;;;;5055663;28;20115;-67
2022/04/14 14:53:30;;;;;;;;;;;;;;;;;;5053029;28;19924;-67
2022/04/14 14:55:56;;;;;;;;;;;;;;;;;;5048823;28;19932;-67
2022/04/14 15:01:06;;;;;;;;;;;;;;;;;;5037056;28;19924;-67
2022/04/14 15:03:33;;;;;;;;;;;;;;;;;;5045267;28;20413;-68
2022/04/14 15:05:59;;;;;;;;;;;;;;;;;;5050701;28;19940;-67
2022/04/14 15:08:25;;;;;;;;;;;;;;;;;;5045290;28;19925;-67
2022/04/14 15:10:51;;;;;;;;;;;;;;;;;;5055225;28;20289;-67
2022/04/14 15:13:17;;;;;;;;;;;;;;;;;;5047905;28;20412;-67
2022/04/14 15:15:49;;;;;;;;;;;;;;;;;;5045224;28;19932;-67
2022/04/14 15:18:15;;;;;;;;;;;;;;;;;;5056318;28;20401;-67
2022/04/14 15:20:41;;;;;;;;;;;;;;;;;;5049780;28;19928;-67
2022/04/14 15:23:07;;;;;;;;;;;;;;;;;;5046852;28;19925;-67
2022/04/14 15:25:34;;;;;;;;;;;;;;;;;;5057291;28;20027;-67
2022/04/14 15:28:00;;;;;;;;;;;;;;;;;;5047201;28;19929;-66
2022/04/14 15:30:26;;;;;;;;;;;;;;;;;;5048072;28;19932;-68
2022/04/14 15:32:56;;;;;;;;;;;;;;;;;;5048383;28;19940;-67
2022/04/14 15:35:22;;;;;;;;;;;;;;;;;;5050270;28;20029;-67
2022/04/14 15:37:48;;;;;;;;;;;;;;;;;;5056149;28;19928;-67
2022/04/14 15:40:14;;;;;;;;;;;;;;;;;;5047261;28;19929;-66
2022/04/14 15:42:40;;;;;;;;;;;;;;;;;;5050864;28;20390;-67
2022/04/14 15:45:06;;;;;;;;;;;;;;;;;;5056073;28;20047;-67
2022/04/14 15:47:32;;;;;;;;;;;;;;;;;;5054176;28;19925;-68
2022/04/14 15:49:59;;;;;;;;;;;;;;;;;;5054042;28;19940;-68
2022/04/14 15:52:25;;;;;;;;;;;;;;;;;;5052788;28;20043;-67
2022/04/14 15:54:51;;;;;;;;;;;;;;;;;;5056389;28;19928;-67
2022/04/14 15:57:17;;;;;;;;;;;;;;;;;;5057144;28;19955;-67
2022/04/14 15:59:45;;;;;;;;;;;;;;;;;;5055361;28;19925;-68
2022/04/14 16:02:13;;;;;;;;;;;;;;;;;;5051714;28;20015;-68
2022/04/14 16:04:39;;;;;;;;;;;;;;;;;;5050997;28;19933;-66
2022/04/14 16:07:05;;;;;;;;;;;;;;;;;;5052483;28;20626;-67
2022/04/14 16:12:02;;;;;;;;;;;;;;;;;;5050017;28;19928;-67
2022/04/14 16:12:16;;;;;;;;;;;;;;;;;;5052448;28;19929;-67
2022/04/14 16:14:42;;;;;;;;;;;;;;;;;;5051505;28;19935;-67
2022/04/14 16:17:09;;;;;;;;;;;;;;;;;;5052557;28;20141;-68
2022/04/14 16:19:36;;;;;;;;;;;;;;;;;;5051589;28;19936;-69
2022/04/14 16:22:02;;;;;;;;;;;;;;;;;;5050080;28;20675;-69
2022/04/14 16:24:28;;;;;;;;;;;;;;;;;;5051634;28;19929;-68
2022/04/14 16:26:54;;;;;;;;;;;;;;;;;;5056046;28;19936;-68
2022/04/14 16:29:20;;;;;;;;;;;;;;;;;;5049176;28;20385;-67
2022/04/14 16:31:46;;;;;;;;;;;;;;;;;;5049410;28;20040;-67
2022/04/14 16:34:14;;;;;;;;;;;;;;;;;;5051729;28;19940;-67
2022/04/14 16:36:40;;;;;;;;;;;;;;;;;;5052807;28;19924;-69
2022/04/14 16:39:07;;;;;;;;;;;;;;;;;;5054808;28;20313;-66